VSP1200 SBCY-SBSP
Flight info
| Callsign | VSP1200 |
|---|---|
| Flight time | 1h 41m |
| Altitude | 37000 |
| Route | DIKUN DCT ASDOV DCT UTLOT |
| Aircraft | B721/M-SDFGHRWY/C |
Departure
| Time | 2026-05-08 20:52 |
|---|---|
| Airport | Várzea Grande–Marechal Rondon International Airport (SBCY) |
Arrival
| Time | 2026-05-08 22:33 |
|---|---|
| Airport | Congonhas–Deputado Freitas Nobre Airport (SBSP) |
| Time | Latitude | Longitude | Altitude | Speed | Heading |
|---|---|---|---|---|---|
| 2026-05-08 20:32 | -15.65079 | -56.11956 | 600 ft | 0 kts | 242° |
| 2026-05-08 20:42 | -15.65074 | -56.11948 | 600 ft | 2 kts | 239° |
| 2026-05-08 20:42 | -15.65063 | -56.11935 | 600 ft | 2 kts | 224° |
| 2026-05-08 20:43 | -15.65047 | -56.11933 | 600 ft | 2 kts | 169° |
| 2026-05-08 20:43 | -15.65042 | -56.11935 | 600 ft | 0 kts | 160° |
| 2026-05-08 20:47 | -15.65067 | -56.11926 | 600 ft | 8 kts | 159° |
| 2026-05-08 20:47 | -15.65114 | -56.11906 | 601 ft | 13 kts | 154° |
| 2026-05-08 20:48 | -15.65243 | -56.11836 | 601 ft | 19 kts | 152° |
| 2026-05-08 20:48 | -15.65324 | -56.11791 | 601 ft | 21 kts | 152° |
| 2026-05-08 20:48 | -15.65464 | -56.11711 | 601 ft | 25 kts | 151° |
| 2026-05-08 20:48 | -15.65628 | -56.11619 | 601 ft | 24 kts | 154° |
| 2026-05-08 20:49 | -15.65712 | -56.11578 | 600 ft | 15 kts | 154° |
| 2026-05-08 20:49 | -15.65816 | -56.11522 | 600 ft | 19 kts | 152° |
| 2026-05-08 20:49 | -15.65946 | -56.11450 | 600 ft | 23 kts | 153° |
| 2026-05-08 20:49 | -15.66036 | -56.11404 | 600 ft | 15 kts | 153° |
| 2026-05-08 20:50 | -15.66141 | -56.11349 | 600 ft | 16 kts | 152° |
| 2026-05-08 20:50 | -15.66229 | -56.11299 | 600 ft | 15 kts | 137° |
| 2026-05-08 20:50 | -15.66218 | -56.11204 | 601 ft | 16 kts | 27° |
| 2026-05-08 20:50 | -15.66166 | -56.11209 | 601 ft | 0 kts | 336° |
| 2026-05-08 20:51 | -15.66163 | -56.11210 | 601 ft | 5 kts | 336° |
| 2026-05-08 20:51 | -15.65979 | -56.11305 | 601 ft | 63 kts | 332° |
| 2026-05-08 20:52 | -15.65384 | -56.11623 | 603 ft | 128 kts | 333° |
| 2026-05-08 20:52 | -15.64480 | -56.12111 | 909 ft | 158 kts | 333° |
| 2026-05-08 20:52 | -15.63475 | -56.12623 | 1533 ft | 163 kts | 338° |
| 2026-05-08 20:52 | -15.62436 | -56.13073 | 2402 ft | 160 kts | 340° |
| 2026-05-08 20:53 | -15.61379 | -56.13452 | 3088 ft | 163 kts | 345° |
| 2026-05-08 20:53 | -15.60186 | -56.13691 | 3521 ft | 185 kts | 2° |
| 2026-05-08 20:53 | -15.58991 | -56.13165 | 4272 ft | 201 kts | 43° |
| 2026-05-08 20:53 | -15.58402 | -56.11756 | 4914 ft | 233 kts | 86° |
| 2026-05-08 20:54 | -15.58986 | -56.10134 | 5659 ft | 259 kts | 128° |
| 2026-05-08 20:54 | -15.60217 | -56.08730 | 6571 ft | 267 kts | 131° |
| 2026-05-08 20:54 | -15.61542 | -56.07347 | 7305 ft | 281 kts | 135° |
| 2026-05-08 20:54 | -15.63018 | -56.05952 | 8147 ft | 290 kts | 137° |
| 2026-05-08 20:55 | -15.64641 | -56.04662 | 8989 ft | 298 kts | 149° |
| 2026-05-08 20:55 | -15.66441 | -56.03528 | 9853 ft | 306 kts | 150° |
| 2026-05-08 20:55 | -15.68284 | -56.02370 | 10640 ft | 313 kts | 149° |
| 2026-05-08 20:55 | -15.70140 | -56.01204 | 11433 ft | 318 kts | 149° |
| 2026-05-08 20:56 | -15.72047 | -56.00008 | 12250 ft | 323 kts | 149° |
| 2026-05-08 20:56 | -15.73982 | -55.98793 | 13096 ft | 326 kts | 149° |
| 2026-05-08 20:56 | -15.75937 | -55.97567 | 13921 ft | 330 kts | 149° |
| 2026-05-08 20:56 | -15.77911 | -55.96329 | 14694 ft | 332 kts | 149° |
| 2026-05-08 20:57 | -15.79896 | -55.95084 | 15476 ft | 334 kts | 150° |
| 2026-05-08 20:57 | -15.81906 | -55.93825 | 16147 ft | 340 kts | 150° |
| 2026-05-08 20:57 | -15.83928 | -55.92558 | 16825 ft | 345 kts | 150° |
| 2026-05-08 20:57 | -15.86030 | -55.91329 | 17522 ft | 348 kts | 158° |
| 2026-05-08 20:58 | -15.88334 | -55.90570 | 18224 ft | 349 kts | 169° |
| 2026-05-08 20:58 | -15.90747 | -55.90229 | 18787 ft | 352 kts | 179° |
| 2026-05-08 20:58 | -15.93222 | -55.90161 | 19314 ft | 361 kts | 181° |
| 2026-05-08 20:58 | -15.95780 | -55.90123 | 19858 ft | 371 kts | 181° |
| 2026-05-08 20:59 | -15.98398 | -55.90087 | 20414 ft | 380 kts | 181° |
| 2026-05-08 20:59 | -16.01064 | -55.90052 | 20970 ft | 388 kts | 181° |
| 2026-05-08 20:59 | -16.03795 | -55.90019 | 21538 ft | 395 kts | 181° |
| 2026-05-08 20:59 | -16.06538 | -55.89989 | 22108 ft | 402 kts | 181° |
| 2026-05-08 21:00 | -16.09351 | -55.89958 | 22693 ft | 407 kts | 181° |
| 2026-05-08 21:00 | -16.12167 | -55.89430 | 23255 ft | 418 kts | 160° |
| 2026-05-08 21:00 | -16.14627 | -55.87804 | 23777 ft | 426 kts | 137° |
| 2026-05-08 21:00 | -16.16355 | -55.85285 | 24291 ft | 431 kts | 115° |
| 2026-05-08 21:01 | -16.17367 | -55.82352 | 24837 ft | 432 kts | 105° |
| 2026-05-08 21:01 | -16.18172 | -55.79326 | 25380 ft | 434 kts | 105° |
| 2026-05-08 21:01 | -16.19038 | -55.76310 | 25924 ft | 437 kts | 108° |
| 2026-05-08 21:01 | -16.20113 | -55.73343 | 26456 ft | 439 kts | 113° |
| 2026-05-08 21:02 | -16.21578 | -55.70555 | 27017 ft | 441 kts | 123° |
| 2026-05-08 21:02 | -16.23376 | -55.67954 | 27559 ft | 442 kts | 128° |
| 2026-05-08 21:02 | -16.25233 | -55.65443 | 28007 ft | 446 kts | 127° |
| 2026-05-08 21:02 | -16.27014 | -55.62772 | 28471 ft | 450 kts | 122° |
| 2026-05-08 21:03 | -16.28633 | -55.59976 | 28943 ft | 452 kts | 120° |
| 2026-05-08 21:03 | -16.30292 | -55.57181 | 29414 ft | 455 kts | 123° |
| 2026-05-08 21:03 | -16.32082 | -55.54440 | 29902 ft | 457 kts | 125° |
| 2026-05-08 21:03 | -16.33870 | -55.51705 | 30318 ft | 459 kts | 123° |
| 2026-05-08 21:04 | -16.35600 | -55.48895 | 30729 ft | 460 kts | 122° |
| 2026-05-08 21:04 | -16.37317 | -55.46076 | 31151 ft | 461 kts | 123° |
| 2026-05-08 21:04 | -16.39081 | -55.43283 | 31579 ft | 462 kts | 124° |
| 2026-05-08 21:04 | -16.40839 | -55.40529 | 32002 ft | 463 kts | 124° |
| 2026-05-08 21:05 | -16.42597 | -55.37718 | 32439 ft | 464 kts | 124° |
| 2026-05-08 21:05 | -16.44344 | -55.34894 | 32859 ft | 465 kts | 124° |
| 2026-05-08 21:05 | -16.46131 | -55.32035 | 32875 ft | 476 kts | 124° |
| 2026-05-08 21:05 | -16.47972 | -55.29116 | 32885 ft | 487 kts | 124° |
| 2026-05-08 21:06 | -16.49842 | -55.26129 | 32890 ft | 497 kts | 124° |
| 2026-05-08 21:06 | -16.53654 | -55.20008 | 32886 ft | 506 kts | 124° |
| 2026-05-08 21:07 | -16.57520 | -55.13830 | 32892 ft | 511 kts | 124° |
| 2026-05-08 21:07 | -16.61410 | -55.07581 | 32892 ft | 516 kts | 124° |
| 2026-05-08 21:08 | -16.65316 | -55.01323 | 32895 ft | 519 kts | 124° |
| 2026-05-08 21:08 | -16.69267 | -54.94971 | 32895 ft | 523 kts | 124° |
| 2026-05-08 21:09 | -16.73241 | -54.88587 | 32894 ft | 526 kts | 124° |
| 2026-05-08 21:09 | -16.77235 | -54.82158 | 32897 ft | 528 kts | 124° |
| 2026-05-08 21:10 | -16.81234 | -54.75719 | 32904 ft | 529 kts | 124° |
| 2026-05-08 21:10 | -16.85239 | -54.69262 | 32906 ft | 531 kts | 124° |
| 2026-05-08 21:11 | -16.89237 | -54.62813 | 32906 ft | 532 kts | 124° |
| 2026-05-08 21:11 | -16.93262 | -54.56312 | 32911 ft | 533 kts | 124° |
| 2026-05-08 21:12 | -16.97293 | -54.49797 | 32912 ft | 533 kts | 124° |
| 2026-05-08 21:12 | -17.01314 | -54.43289 | 32915 ft | 533 kts | 124° |
| 2026-05-08 21:13 | -17.05307 | -54.36824 | 32916 ft | 531 kts | 124° |
| 2026-05-08 21:13 | -17.09305 | -54.30342 | 32914 ft | 529 kts | 124° |
| 2026-05-08 21:14 | -17.13295 | -54.23869 | 32919 ft | 528 kts | 124° |
| 2026-05-08 21:14 | -17.17274 | -54.17407 | 32922 ft | 527 kts | 124° |
| 2026-05-08 21:15 | -17.21221 | -54.10989 | 32925 ft | 527 kts | 124° |
| 2026-05-08 21:15 | -17.25182 | -54.04545 | 32930 ft | 526 kts | 124° |
| 2026-05-08 21:16 | -17.29146 | -53.98092 | 32932 ft | 525 kts | 124° |
| 2026-05-08 21:16 | -17.33503 | -53.91983 | 32930 ft | 523 kts | 133° |
| 2026-05-08 21:17 | -17.38310 | -53.86278 | 32933 ft | 522 kts | 131° |
| 2026-05-08 21:17 | -17.42773 | -53.80304 | 32933 ft | 522 kts | 131° |
| 2026-05-08 21:18 | -17.47463 | -53.74498 | 32935 ft | 522 kts | 132° |
| 2026-05-08 21:18 | -17.52025 | -53.68556 | 32939 ft | 522 kts | 131° |
| 2026-05-08 21:19 | -17.56630 | -53.62730 | 32938 ft | 522 kts | 132° |
| 2026-05-08 21:19 | -17.61226 | -53.56815 | 32942 ft | 522 kts | 131° |
| 2026-05-08 21:20 | -17.65843 | -53.50912 | 32941 ft | 522 kts | 131° |
| 2026-05-08 21:20 | -17.70418 | -53.45044 | 32945 ft | 523 kts | 131° |
| 2026-05-08 21:21 | -17.75020 | -53.39132 | 32947 ft | 523 kts | 131° |
| 2026-05-08 21:21 | -17.79621 | -53.33227 | 32951 ft | 523 kts | 131° |
| 2026-05-08 21:22 | -17.84216 | -53.27311 | 32952 ft | 523 kts | 131° |
| 2026-05-08 21:22 | -17.88818 | -53.21394 | 32955 ft | 523 kts | 131° |
| 2026-05-08 21:23 | -17.93430 | -53.15449 | 32955 ft | 523 kts | 131° |
| 2026-05-08 21:23 | -17.98007 | -53.09551 | 32957 ft | 523 kts | 131° |
| 2026-05-08 21:24 | -18.02603 | -53.03616 | 32956 ft | 524 kts | 131° |
| 2026-05-08 21:24 | -18.07208 | -52.97669 | 32958 ft | 524 kts | 131° |
| 2026-05-08 21:25 | -18.11816 | -52.91710 | 32962 ft | 524 kts | 131° |
| 2026-05-08 21:25 | -18.16420 | -52.85753 | 32959 ft | 524 kts | 131° |
| 2026-05-08 21:26 | -18.20991 | -52.79831 | 32955 ft | 525 kts | 130° |
| 2026-05-08 21:26 | -18.25588 | -52.73872 | 32956 ft | 525 kts | 130° |
| 2026-05-08 21:27 | -18.30193 | -52.67894 | 32956 ft | 525 kts | 130° |
| 2026-05-08 21:27 | -18.34800 | -52.61911 | 32955 ft | 525 kts | 130° |
| 2026-05-08 21:28 | -18.39380 | -52.55956 | 32955 ft | 526 kts | 130° |
| 2026-05-08 21:28 | -18.43983 | -52.49966 | 32954 ft | 526 kts | 130° |
| 2026-05-08 21:29 | -18.48587 | -52.43969 | 32948 ft | 526 kts | 130° |
| 2026-05-08 21:29 | -18.53191 | -52.37966 | 32946 ft | 526 kts | 130° |
| 2026-05-08 21:30 | -18.57760 | -52.32002 | 32941 ft | 526 kts | 130° |
| 2026-05-08 21:30 | -18.62369 | -52.25982 | 32941 ft | 527 kts | 130° |
| 2026-05-08 21:31 | -18.66964 | -52.19973 | 32942 ft | 527 kts | 130° |
| 2026-05-08 21:31 | -18.71570 | -52.13945 | 32943 ft | 527 kts | 130° |
| 2026-05-08 21:32 | -18.76174 | -52.07913 | 32938 ft | 527 kts | 130° |
| 2026-05-08 21:32 | -18.80777 | -52.01876 | 32932 ft | 527 kts | 130° |
| 2026-05-08 21:33 | -18.85344 | -51.95881 | 32934 ft | 527 kts | 130° |
| 2026-05-08 21:33 | -18.89946 | -51.89835 | 32934 ft | 527 kts | 131° |
| 2026-05-08 21:34 | -18.94550 | -51.83780 | 32931 ft | 528 kts | 130° |
| 2026-05-08 21:34 | -18.99116 | -51.77769 | 32926 ft | 528 kts | 131° |
| 2026-05-08 21:35 | -19.03710 | -51.71716 | 32929 ft | 527 kts | 131° |
| 2026-05-08 21:35 | -19.07556 | -51.66643 | 32930 ft | 527 kts | 131° |
| 2026-05-08 21:36 | -19.12112 | -51.60628 | 32928 ft | 527 kts | 130° |
| 2026-05-08 21:36 | -19.16700 | -51.54566 | 32927 ft | 527 kts | 131° |
| 2026-05-08 21:37 | -19.21279 | -51.48507 | 32927 ft | 527 kts | 131° |
| 2026-05-08 21:37 | -19.25862 | -51.42441 | 32922 ft | 527 kts | 131° |
| 2026-05-08 21:38 | -19.30440 | -51.36372 | 32926 ft | 527 kts | 130° |
| 2026-05-08 21:38 | -19.34991 | -51.30334 | 32919 ft | 527 kts | 130° |
| 2026-05-08 21:39 | -19.39566 | -51.24259 | 32916 ft | 526 kts | 130° |
| 2026-05-08 21:39 | -19.44107 | -51.18223 | 32917 ft | 526 kts | 130° |
| 2026-05-08 21:40 | -19.48663 | -51.12159 | 32918 ft | 526 kts | 131° |
| 2026-05-08 21:40 | -19.53218 | -51.06093 | 32916 ft | 526 kts | 131° |
| 2026-05-08 21:41 | -19.60049 | -50.96981 | 32921 ft | 525 kts | 131° |
| 2026-05-08 21:41 | -19.64603 | -50.90900 | 32916 ft | 526 kts | 131° |
| 2026-05-08 21:42 | -19.69136 | -50.84841 | 32918 ft | 526 kts | 131° |
| 2026-05-08 21:42 | -19.73685 | -50.78754 | 32919 ft | 526 kts | 131° |
| 2026-05-08 21:43 | -19.78202 | -50.72703 | 32918 ft | 526 kts | 131° |
| 2026-05-08 21:43 | -19.82748 | -50.66607 | 32920 ft | 526 kts | 131° |
| 2026-05-08 21:44 | -19.87294 | -50.60505 | 32918 ft | 526 kts | 131° |
| 2026-05-08 21:44 | -19.91809 | -50.54439 | 32922 ft | 526 kts | 130° |
| 2026-05-08 21:45 | -19.96345 | -50.48339 | 32929 ft | 526 kts | 130° |
| 2026-05-08 21:45 | -20.00891 | -50.42218 | 32927 ft | 526 kts | 130° |
| 2026-05-08 21:46 | -20.05433 | -50.36096 | 32930 ft | 526 kts | 130° |
| 2026-05-08 21:46 | -20.09939 | -50.30018 | 32929 ft | 526 kts | 131° |
| 2026-05-08 21:47 | -20.14920 | -50.24366 | 32928 ft | 522 kts | 141° |
| 2026-05-08 21:47 | -20.20409 | -50.19323 | 32932 ft | 521 kts | 141° |
| 2026-05-08 21:48 | -20.25625 | -50.13927 | 32935 ft | 522 kts | 139° |
| 2026-05-08 21:48 | -20.30972 | -50.08749 | 32938 ft | 521 kts | 141° |
| 2026-05-08 21:49 | -20.36259 | -50.03432 | 32933 ft | 523 kts | 139° |
| 2026-05-08 21:49 | -20.41596 | -49.98149 | 32935 ft | 522 kts | 141° |
| 2026-05-08 21:50 | -20.46919 | -49.92849 | 32940 ft | 523 kts | 140° |
| 2026-05-08 21:50 | -20.52205 | -49.87572 | 32946 ft | 523 kts | 140° |
| 2026-05-08 21:51 | -20.57536 | -49.82269 | 32945 ft | 524 kts | 140° |
| 2026-05-08 21:51 | -20.62864 | -49.76936 | 32943 ft | 524 kts | 140° |
| 2026-05-08 21:52 | -20.68199 | -49.71617 | 32949 ft | 525 kts | 140° |
| 2026-05-08 21:52 | -20.73500 | -49.66303 | 32959 ft | 525 kts | 140° |
| 2026-05-08 21:53 | -20.78840 | -49.60964 | 32966 ft | 526 kts | 140° |
| 2026-05-08 21:53 | -20.84179 | -49.55606 | 32975 ft | 526 kts | 140° |
| 2026-05-08 21:54 | -20.89498 | -49.50272 | 32976 ft | 526 kts | 140° |
| 2026-05-08 21:54 | -20.94842 | -49.44901 | 32972 ft | 527 kts | 140° |
| 2026-05-08 21:55 | -21.00194 | -49.39522 | 32966 ft | 528 kts | 140° |
| 2026-05-08 21:56 | -21.08226 | -49.31434 | 32953 ft | 528 kts | 140° |
| 2026-05-08 21:56 | -21.13588 | -49.26029 | 32949 ft | 529 kts | 140° |
| 2026-05-08 21:57 | -21.18914 | -49.20653 | 32947 ft | 529 kts | 140° |
| 2026-05-08 21:57 | -21.24289 | -49.15224 | 32951 ft | 529 kts | 140° |
| 2026-05-08 21:58 | -21.29650 | -49.09802 | 32946 ft | 530 kts | 140° |
| 2026-05-08 21:58 | -21.34985 | -49.04402 | 32951 ft | 530 kts | 140° |
| 2026-05-08 21:59 | -21.40354 | -48.98959 | 32947 ft | 531 kts | 140° |
| 2026-05-08 21:59 | -21.45734 | -48.93503 | 32954 ft | 531 kts | 140° |
| 2026-05-08 22:00 | -21.51106 | -48.88047 | 32953 ft | 531 kts | 140° |
| 2026-05-08 22:00 | -21.56478 | -48.82584 | 32954 ft | 532 kts | 140° |
| 2026-05-08 22:01 | -21.61847 | -48.77120 | 32953 ft | 532 kts | 140° |
| 2026-05-08 22:01 | -21.67221 | -48.71645 | 32950 ft | 529 kts | 140° |
| 2026-05-08 22:02 | -21.72534 | -48.66226 | 32954 ft | 530 kts | 140° |
| 2026-05-08 22:02 | -21.77894 | -48.60753 | 32960 ft | 531 kts | 140° |
| 2026-05-08 22:03 | -21.83264 | -48.55264 | 32959 ft | 532 kts | 140° |
| 2026-05-08 22:03 | -21.88604 | -48.49800 | 32962 ft | 532 kts | 140° |
| 2026-05-08 22:04 | -21.93967 | -48.44306 | 32962 ft | 532 kts | 140° |
| 2026-05-08 22:04 | -21.99330 | -48.38806 | 32965 ft | 532 kts | 139° |
| 2026-05-08 22:05 | -22.04686 | -48.33307 | 32963 ft | 531 kts | 139° |
| 2026-05-08 22:05 | -22.10009 | -48.27836 | 32971 ft | 532 kts | 139° |
| 2026-05-08 22:06 | -22.15364 | -48.22326 | 32974 ft | 532 kts | 139° |
| 2026-05-08 22:06 | -22.20720 | -48.16809 | 32972 ft | 532 kts | 139° |
| 2026-05-08 22:07 | -22.26073 | -48.11290 | 32975 ft | 532 kts | 139° |
| 2026-05-08 22:07 | -22.31433 | -48.05756 | 32977 ft | 532 kts | 139° |
| 2026-05-08 22:08 | -22.36755 | -48.00256 | 32976 ft | 532 kts | 139° |
| 2026-05-08 22:08 | -22.42111 | -47.94714 | 32971 ft | 533 kts | 139° |
| 2026-05-08 22:09 | -22.47451 | -47.89128 | 32970 ft | 533 kts | 137° |
| 2026-05-08 22:09 | -22.52214 | -47.83034 | 32964 ft | 536 kts | 129° |
| 2026-05-08 22:10 | -22.56749 | -47.76640 | 32965 ft | 534 kts | 133° |
| 2026-05-08 22:10 | -22.61569 | -47.70502 | 32968 ft | 535 kts | 131° |
| 2026-05-08 22:11 | -22.66167 | -47.64156 | 32965 ft | 535 kts | 131° |
| 2026-05-08 22:11 | -22.70925 | -47.57951 | 32968 ft | 535 kts | 131° |
| 2026-05-08 22:11 | -22.73248 | -47.54818 | 32444 ft | 546 kts | 130° |
| 2026-05-08 22:12 | -22.75623 | -47.51577 | 31619 ft | 549 kts | 130° |
| 2026-05-08 22:12 | -22.78010 | -47.48383 | 30713 ft | 542 kts | 131° |
| 2026-05-08 22:12 | -22.80388 | -47.45243 | 29778 ft | 535 kts | 130° |
| 2026-05-08 22:12 | -22.82723 | -47.42119 | 28755 ft | 529 kts | 130° |
| 2026-05-08 22:13 | -22.85006 | -47.39024 | 27765 ft | 522 kts | 130° |
| 2026-05-08 22:13 | -22.87267 | -47.35980 | 26821 ft | 515 kts | 130° |
| 2026-05-08 22:13 | -22.89517 | -47.32980 | 25901 ft | 508 kts | 130° |
| 2026-05-08 22:13 | -22.91728 | -47.30019 | 25007 ft | 501 kts | 130° |
| 2026-05-08 22:14 | -22.93897 | -47.27089 | 24146 ft | 495 kts | 129° |
| 2026-05-08 22:14 | -22.96020 | -47.24226 | 23254 ft | 489 kts | 129° |
| 2026-05-08 22:14 | -22.98151 | -47.21368 | 22266 ft | 482 kts | 130° |
| 2026-05-08 22:14 | -23.00420 | -47.18728 | 21284 ft | 475 kts | 139° |
| 2026-05-08 22:15 | -23.03059 | -47.16624 | 20345 ft | 467 kts | 149° |
| 2026-05-08 22:15 | -23.05957 | -47.15084 | 19442 ft | 460 kts | 160° |
| 2026-05-08 22:15 | -23.09003 | -47.14086 | 18566 ft | 453 kts | 167° |
| 2026-05-08 22:15 | -23.12020 | -47.13372 | 17623 ft | 444 kts | 171° |
| 2026-05-08 22:16 | -23.15080 | -47.12821 | 16638 ft | 436 kts | 172° |
| 2026-05-08 22:16 | -23.18005 | -47.12230 | 15705 ft | 430 kts | 169° |
| 2026-05-08 22:16 | -23.20903 | -47.11523 | 14789 ft | 421 kts | 168° |
| 2026-05-08 22:16 | -23.23722 | -47.10857 | 13899 ft | 409 kts | 169° |
| 2026-05-08 22:17 | -23.26494 | -47.10279 | 12904 ft | 399 kts | 170° |
| 2026-05-08 22:17 | -23.29196 | -47.09720 | 11957 ft | 391 kts | 169° |
| 2026-05-08 22:17 | -23.31828 | -47.09130 | 11193 ft | 380 kts | 169° |
| 2026-05-08 22:17 | -23.34381 | -47.08552 | 10502 ft | 370 kts | 169° |
| 2026-05-08 22:18 | -23.36854 | -47.08014 | 9830 ft | 362 kts | 170° |
| 2026-05-08 22:18 | -23.39294 | -47.07445 | 9084 ft | 356 kts | 164° |
| 2026-05-08 22:18 | -23.41482 | -47.06374 | 8971 ft | 333 kts | 149° |
| 2026-05-08 22:18 | -23.43289 | -47.04885 | 8972 ft | 325 kts | 135° |
| 2026-05-08 22:19 | -23.44754 | -47.03015 | 8975 ft | 325 kts | 124° |
| 2026-05-08 22:19 | -23.46014 | -47.00961 | 8975 ft | 326 kts | 119° |
| 2026-05-08 22:19 | -23.47172 | -46.98835 | 8984 ft | 327 kts | 118° |
| 2026-05-08 22:19 | -23.48370 | -46.96718 | 8992 ft | 328 kts | 120° |
| 2026-05-08 22:20 | -23.49619 | -46.94636 | 8995 ft | 329 kts | 121° |
| 2026-05-08 22:20 | -23.50861 | -46.92545 | 8996 ft | 328 kts | 120° |
| 2026-05-08 22:20 | -23.52077 | -46.90437 | 9000 ft | 328 kts | 120° |
| 2026-05-08 22:20 | -23.53293 | -46.88332 | 9005 ft | 328 kts | 120° |
| 2026-05-08 22:21 | -23.54524 | -46.86228 | 9006 ft | 329 kts | 120° |
| 2026-05-08 22:21 | -23.55765 | -46.84133 | 9034 ft | 329 kts | 122° |
| 2026-05-08 22:21 | -23.57325 | -46.82299 | 9019 ft | 332 kts | 140° |
| 2026-05-08 22:21 | -23.59198 | -46.80824 | 9030 ft | 332 kts | 147° |
| 2026-05-08 22:22 | -23.60506 | -46.79960 | 9035 ft | 332 kts | 150° |
| 2026-05-08 22:22 | -23.63152 | -46.78260 | 9036 ft | 332 kts | 148° |
| 2026-05-08 22:22 | -23.64452 | -46.77353 | 8853 ft | 338 kts | 147° |
| 2026-05-08 22:22 | -23.66418 | -46.75938 | 8391 ft | 334 kts | 146° |
| 2026-05-08 22:23 | -23.68997 | -46.74144 | 7773 ft | 324 kts | 148° |
| 2026-05-08 22:23 | -23.70255 | -46.73287 | 7476 ft | 320 kts | 148° |
| 2026-05-08 22:23 | -23.72730 | -46.71577 | 6867 ft | 314 kts | 147° |
| 2026-05-08 22:23 | -23.74560 | -46.70298 | 6414 ft | 310 kts | 147° |
| 2026-05-08 22:24 | -23.75766 | -46.69459 | 6095 ft | 308 kts | 147° |
| 2026-05-08 22:24 | -23.77548 | -46.68225 | 5977 ft | 293 kts | 147° |
| 2026-05-08 22:24 | -23.79222 | -46.67067 | 5964 ft | 276 kts | 147° |
| 2026-05-08 22:24 | -23.80805 | -46.65974 | 5956 ft | 262 kts | 148° |
| 2026-05-08 22:25 | -23.82007 | -46.65144 | 5946 ft | 253 kts | 148° |
| 2026-05-08 22:25 | -23.83475 | -46.64132 | 5944 ft | 249 kts | 148° |
| 2026-05-08 22:25 | -23.84919 | -46.63136 | 5943 ft | 249 kts | 148° |
| 2026-05-08 22:25 | -23.86375 | -46.62108 | 5931 ft | 249 kts | 143° |
| 2026-05-08 22:26 | -23.87476 | -46.60676 | 5705 ft | 254 kts | 109° |
| 2026-05-08 22:26 | -23.87627 | -46.58780 | 5321 ft | 253 kts | 71° |
| 2026-05-08 22:26 | -23.86901 | -46.57043 | 4990 ft | 251 kts | 53° |
| 2026-05-08 22:26 | -23.85942 | -46.55431 | 4660 ft | 255 kts | 52° |
| 2026-05-08 22:27 | -23.84960 | -46.53784 | 4206 ft | 259 kts | 52° |
| 2026-05-08 22:27 | -23.83961 | -46.52144 | 3904 ft | 257 kts | 52° |
| 2026-05-08 22:27 | -23.82743 | -46.50951 | 3951 ft | 228 kts | 18° |
| 2026-05-08 22:27 | -23.81271 | -46.50970 | 4091 ft | 207 kts | 333° |
| 2026-05-08 22:28 | -23.80302 | -46.52068 | 4098 ft | 196 kts | 306° |
| 2026-05-08 22:28 | -23.79493 | -46.53106 | 4350 ft | 166 kts | 317° |
| 2026-05-08 22:28 | -23.78700 | -46.53975 | 4266 ft | 160 kts | 316° |
| 2026-05-08 22:28 | -23.77937 | -46.54837 | 4283 ft | 160 kts | 315° |
| 2026-05-08 22:29 | -23.77086 | -46.55620 | 4320 ft | 163 kts | 322° |
| 2026-05-08 22:29 | -23.76154 | -46.56357 | 4392 ft | 164 kts | 328° |
| 2026-05-08 22:29 | -23.75168 | -46.56953 | 4440 ft | 165 kts | 331° |
| 2026-05-08 22:29 | -23.74179 | -46.57621 | 4449 ft | 167 kts | 326° |
| 2026-05-08 22:30 | -23.73258 | -46.58336 | 4430 ft | 161 kts | 324° |
| 2026-05-08 22:30 | -23.72313 | -46.59000 | 4464 ft | 162 kts | 329° |
| 2026-05-08 22:30 | -23.71339 | -46.59637 | 4424 ft | 165 kts | 328° |
| 2026-05-08 22:30 | -23.70389 | -46.60270 | 4134 ft | 155 kts | 328° |
| 2026-05-08 22:31 | -23.69526 | -46.60862 | 3934 ft | 137 kts | 328° |
| 2026-05-08 22:31 | -23.68783 | -46.61396 | 3819 ft | 119 kts | 327° |
| 2026-05-08 22:31 | -23.68086 | -46.61874 | 3624 ft | 119 kts | 329° |
| 2026-05-08 22:31 | -23.67379 | -46.62344 | 3462 ft | 120 kts | 329° |
| 2026-05-08 22:32 | -23.66701 | -46.62880 | 3272 ft | 119 kts | 327° |
| 2026-05-08 22:32 | -23.65988 | -46.63350 | 3169 ft | 123 kts | 333° |
| 2026-05-08 22:32 | -23.65236 | -46.63862 | 3066 ft | 130 kts | 328° |
| 2026-05-08 22:32 | -23.64485 | -46.64390 | 2869 ft | 126 kts | 329° |
| 2026-05-08 22:33 | -23.63766 | -46.64889 | 2737 ft | 122 kts | 329° |
| 2026-05-08 22:33 | -23.63047 | -46.65380 | 2620 ft | 117 kts | 329° |
| 2026-05-08 22:33 | -23.62471 | -46.65782 | 2608 ft | 73 kts | 328° |
| 2026-05-08 22:33 | -23.62217 | -46.65957 | 2603 ft | 10 kts | 322° |
| 2026-05-08 22:34 | -23.62208 | -46.66023 | 2603 ft | 11 kts | 228° |
| 2026-05-08 22:34 | -23.62277 | -46.66022 | 2604 ft | 13 kts | 148° |
| 2026-05-08 22:34 | -23.62360 | -46.65966 | 2604 ft | 16 kts | 147° |
| 2026-05-08 22:34 | -23.62458 | -46.65897 | 2605 ft | 16 kts | 146° |
| 2026-05-08 22:35 | -23.62544 | -46.65836 | 2605 ft | 10 kts | 149° |
| 2026-05-08 22:35 | -23.62588 | -46.65807 | 2605 ft | 8 kts | 148° |
| 2026-05-08 22:35 | -23.62610 | -46.65797 | 2605 ft | 2 kts | 187° |
| 2026-05-08 22:35 | -23.62633 | -46.65823 | 2605 ft | 8 kts | 239° |
| 2026-05-08 22:36 | -23.62645 | -46.65843 | 2604 ft | 2 kts | 238° |
| 2026-05-08 22:36 | -23.62653 | -46.65857 | 2604 ft | 0 kts | 238° |